Islamabad Weather



Islamabad's Current Weather

Temprature 10o smoke

smoke

Rain: 0 %

Min Temprature10o
Max Temprature10o
Humidity71
Wind Speed2.1 m/h
Sun Rise06:23:01
Sun Set17:19:17
Current Time: 28-Oct-2020 07:44:19
Lat/Lon: 33.71, 73.13




Islamabad's Geo Location



Islamabad's Weather Forecast

Time Overall Temp Min Temp Max Temp Humidity Wind Speed Rain
28-Oct-2020 (Wed)
08:00:00 clear sky 15.920 15.920 22.140 46 1.65 m/h 0 %
11:00:00 clear sky 23.740 23.740 27.520 27 2.75 m/h 0 %
14:00:00 clear sky 27.600 27.600 28.800 17 2.87 m/h 0 %
17:00:00 few clouds 23.560 23.560 23.670 19 1.25 m/h 0 %
20:00:00 few clouds 20.210 20.210 20.210 24 2.86 m/h 0 %
23:00:00 few clouds 19.650 19.650 19.650 24 3.41 m/h 0 %
29-Oct-2020 (Thu)
02:00:00 clear sky 19.020 19.020 19.020 25 3.47 m/h 0 %
05:00:00 clear sky 17.810 17.810 17.810 27 2.28 m/h 0 %
08:00:00 clear sky 21.970 21.970 21.970 21 1.66 m/h 0 %
11:00:00 clear sky 27.610 27.610 27.610 15 2.45 m/h 0 %
14:00:00 broken clouds 28.640 28.640 28.640 14 2.61 m/h 0 %
17:00:00 scattered clouds 23.950 23.950 23.950 19 1.96 m/h 0 %
20:00:00 clear sky 20.280 20.280 20.280 24 2.88 m/h 0 %
23:00:00 clear sky 19.380 19.380 19.380 25 3.11 m/h 0 %
30-Oct-2020 (Fri)
02:00:00 clear sky 18.480 18.480 18.480 27 2.83 m/h 0 %
05:00:00 clear sky 17.560 17.560 17.560 28 2.4 m/h 0 %
08:00:00 clear sky 21.370 21.370 21.370 23 1.59 m/h 0 %
11:00:00 clear sky 27.730 27.730 27.730 15 2.24 m/h 0 %
14:00:00 clear sky 29.270 29.270 29.270 13 3.9 m/h 0 %
17:00:00 clear sky 23.530 23.530 23.530 19 3.04 m/h 0 %
20:00:00 clear sky 19.690 19.690 19.690 24 2.69 m/h 0 %
23:00:00 clear sky 18.550 18.550 18.550 25 2.7 m/h 0 %
31-Oct-2020 (Sat)
02:00:00 clear sky 17.570 17.570 17.570 26 2.55 m/h 0 %
05:00:00 clear sky 16.710 16.710 16.710 28 2.35 m/h 0 %
08:00:00 clear sky 20.860 20.860 20.860 22 1.76 m/h 0 %
11:00:00 clear sky 27.930 27.930 27.930 14 2.47 m/h 0 %
14:00:00 clear sky 29.590 29.590 29.590 13 4.25 m/h 0 %
17:00:00 clear sky 23.470 23.470 23.470 18 2.85 m/h 0 %
20:00:00 clear sky 20.090 20.090 20.090 22 2.86 m/h 0 %
23:00:00 clear sky 18.610 18.610 18.610 23 2.47 m/h 0 %
01-Nov-2020 (Sun)
02:00:00 clear sky 17.700 17.700 17.700 25 2.4 m/h 0 %
05:00:00 clear sky 17.150 17.150 17.150 26 1.94 m/h 0 %
08:00:00 clear sky 21.570 21.570 21.570 20 1.57 m/h 0 %
11:00:00 clear sky 28.210 28.210 28.210 14 2.55 m/h 0 %
14:00:00 clear sky 30.230 30.230 30.230 12 4.43 m/h 0 %
17:00:00 clear sky 23.800 23.800 23.800 18 2.26 m/h 0 %
20:00:00 clear sky 20.120 20.120 20.120 22 2.49 m/h 0 %
23:00:00 clear sky 18.630 18.630 18.630 24 2.24 m/h 0 %
02-Nov-2020 (Mon)
02:00:00 clear sky 17.950 17.950 17.950 26 2.52 m/h 0 %
05:00:00 clear sky 17.560 17.560 17.560 27 2.27 m/h 0 %


Islamabad's Tourist Spots

Historical Places in Islamabad

Famous Cities (60)